createdAt,value
2022-11-12T00:18:27.505Z,25.53
2022-11-12T00:48:54.611Z,16.50
2022-11-12T01:19:21.916Z,12.77
2022-11-12T01:49:57.408Z,10.73
2022-11-12T02:20:27.046Z,10.13
2022-11-12T02:50:58.579Z,10.03
2022-11-12T03:21:25.495Z,10.93
2022-11-12T03:51:52.589Z,10.07
2022-11-12T04:22:22.592Z,9.30
2022-11-12T04:52:49.700Z,9.00
2022-11-12T05:23:16.398Z,7.33
2022-11-12T05:53:43.660Z,6.13
2022-11-12T06:24:10.898Z,14.23
2022-11-12T06:54:37.905Z,12.87
2022-11-12T07:25:05.895Z,218.70
2022-11-12T07:55:32.819Z,15.60
2022-11-12T08:26:04.216Z,22.02
2022-11-12T08:56:31.402Z,8.40
2022-11-12T09:26:58.826Z,10.48
2022-11-12T09:57:25.774Z,8.68
2022-11-12T10:27:53.206Z,7.68
2022-11-12T10:58:25.364Z,11.57
2022-11-12T11:28:59.554Z,11.17
2022-11-12T11:59:44.264Z,14.60
2022-11-12T12:30:23.681Z,12.17
2022-11-12T13:01:01.189Z,9.17
2022-11-12T13:31:34.638Z,14.77
2022-11-12T14:02:07.493Z,10.17
2022-11-12T14:32:38.602Z,12.10
2022-11-12T15:03:09.654Z,30.43
2022-11-12T15:33:40.036Z,47.83
2022-11-12T16:04:15.524Z,98.77
2022-11-12T16:34:42.574Z,166.33
2022-11-12T17:05:17.429Z,205.03
2022-11-12T17:35:44.766Z,165.93
2022-11-12T18:06:18.105Z,368.23
2022-11-12T18:36:50.040Z,149.43
2022-11-12T19:07:21.034Z,114.83
2022-11-12T19:37:48.386Z,96.90
2022-11-12T20:08:15.586Z,108.63
2022-11-12T20:38:47.626Z,122.47
2022-11-12T21:09:14.595Z,124.73
2022-11-12T21:39:41.590Z,73.30
2022-11-12T22:10:09.233Z,84.63
2022-11-12T22:40:36.243Z,79.50
2022-11-12T23:11:05.647Z,72.23
2022-11-12T23:41:33.020Z,64.07
